Logo AVAMET
Benvolgut visitant, si us plau, ingressa Recuperar contrasenya
AVAMET paisatges

Xàbia Montgó/Castellans

Dades diàries. Acumulats / Últims 30 dies disponibles

Data Temperatura (°C) Humitat rel. (%) Pressió rel. (hPa) Vent (km/h) Precipitació
Mínima Mitjana Màxima Amplitud
tèrmica
Mínima Mitjana Màxima Mínima Mitjana Màxima Predom. Mitjana Ràfega
màxima
Total
(mm)
Índex-n
Mínima Mitjana Màxima Mínima Mitjana Màxima n
0 a 1
P0 max
mm 5'
Dades mensuals acumulades fins l'últim dia disponible
08/2020 21,8 23,6 25,5 26,9 29,1 31,4 35,7 13,9 38 75 95 1.011 1.014 1.018   2,4 32,2 0,0
Dades anuals acumulades fins l'últim dia disponible
2020 6,4 15,4 25,5 18,6 12,1 22,6 35,7 29,3 15 73 97 1.002 1.018 1.034   2,2 51,5 321,2
Últims 30 dies disponibles
07-08-2020 21,8     26,6     31,9 10,1 38 67 86 1.017 1.017 1.018 SSW 2,1 20,9 0,0
06-08-2020 22,3     26,4     31,2 8,9 43 68 86 1.014 1.015 1.017 ESE 1,9 22,5 0,0
05-08-2020 23,2     26,1     30,3 7,1 59 75 87 1.012 1.013 1.014 SSW 2,6 20,9 0,0
04-08-2020 23,3     26,2     30,1 6,8 61 78 91 1.012 1.013 1.014 ESE 1,9 24,1 0,0
03-08-2020 24,6     26,2     29,1 4,5 65 81 90 1.011 1.012 1.013 E 2,1 24,1 0,0
02-08-2020 25,5     27,6     31,3 5,8 62 81 91 1.011 1.013 1.015 ESE 4,2 22,5 0,0
01-08-2020 24,6     29,4     35,7 11,1 46 74 95 1.011 1.013 1.015 ESE 1,9 32,2 0,0
31-07-2020 24,7     28,4     33,2 8,5 45 66 89 1.013 1.014 1.015 SO 4,1 35,4 0,0
30-07-2020 24,2     27,1     30,0 5,8 45 76 90 1.013 1.014 1.016 WNW 7,4 33,8 0,0
29-07-2020 24,8     26,7     29,6 4,8 69 83 90 1.012 1.014 1.016 WNW 8,5 33,8 0,0
28-07-2020 24,7     28,1     31,8 7,1 29 67 87 1.012 1.013 1.015 W 4,8 24,1 0,0
27-07-2020 23,8     27,2     32,6 8,8 40 73 90 1.014 1.016 1.017 W 4,8 25,7 0,0
26-07-2020 22,2     26,4     31,3 9,1 45 74 88 1.013 1.014 1.015 E 2,4 20,9 0,0
25-07-2020 22,9     26,5     31,3 8,4 47 69 86 1.012 1.014 1.015 ESE 2,1 24,1 0,0
24-07-2020 23,4     27,5     32,2 8,8 36 57 75 1.012 1.013 1.014 SSW 2,1 22,5 0,0
23-07-2020 24,8     28,8     31,7 6,9 34 47 69 1.013 1.014 1.015 E 3,4 16,1 0,0
22-07-2020 23,4     23,9     24,6 1,2 81 86 89 1.015 1.016 1.017 NW 3,9 14,5 0,0
20-07-2020 22,9     23,3     23,9 1,0 75 79 83 1.014 1.015 1.016 SW 0,3 11,3 0,0
19-07-2020 22,2     25,6     29,8 7,6 44 70 85 1.013 1.015 1.016 SSW 4,2 35,4 0,0
18-07-2020 21,7     25,1     29,5 7,8 53 74 88 1.014 1.015 1.016 ESE 2,9 30,6 0,0
17-07-2020 21,7     24,7     28,7 7,0 59 76 88 1.014 1.016 1.017 ESE 2,4 25,7 0,0
16-07-2020 21,6     25,0     28,9 7,3 53 71 84 1.016 1.018 1.019 E 2,4 24,1 0,0
15-07-2020 20,7     24,6     29,8 9,1 42 71 88 1.015 1.016 1.018 E 3,1 19,3 0,0
14-07-2020 21,8     24,7     29,1 7,3 50 76 90 1.014 1.016 1.017 NW 2,3 19,3 0,8
13-07-2020 22,9     25,4     28,2 5,3 59 74 87 1.016 1.017 1.019 W 4,3 27,4 0,0
12-07-2020 23,2     25,2     29,2 6,0 58 77 88 1.016 1.018 1.020 NW 2,7 20,9 1,0
11-07-2020 23,5     25,6     29,2 5,7 67 78 87 1.013 1.016 1.018 NW 5,0 30,6 0,0
10-07-2020 22,8     25,7     29,7 6,9 59 78 89 1.013 1.014 1.016 W 3,5 25,7 0,0
09-07-2020 23,4     26,1     30,2 6,8 56 70 87 1.013 1.015 1.017 W 3,1 29,0 0,0
08-07-2020 22,4     25,2     28,7 6,3 44 78 91 1.015 1.016 1.018 E 2,4 22,5 0,0
Últims 13 mesos disponibles
07/2020 20,7 22,9 24,8 25,9 23,9 29,8 33,2 12,5 47 73 86 1.011 1.015 1.020 W 3,4 35,4 1,8
06/2020 15,1 19,2 21,9 22,9 20,5 27,4 30,3 15,2 43 72 87 1.004 1.014 1.020 W 2,6 41,8 35,4
05/2020 13,4 17,2 21,4 20,9 19,4 25,5 30,7 17,3 47 68 86 1.005 1.016 1.026 W 2,0 43,5 13,2
04/2020 10,3 13,3 17,8 15,8 14,7 19,4 25,2 14,9 47 78 95 1.005 1.016 1.026 W 2,2 45,1 65,4
03/2020 8,2 11,8 17,2 14,6 12,1 18,1 24,7 16,5 41 71 94 1.007 1.017 1.026 W 1,9 51,5 77,2
02/2020 8,3 11,7 16,0 15,5 14,1 20,0 26,7 18,4 31 71 89 1.014 1.025 1.033 SW 0,7 37,0 2,8
01/2020 6,4 9,5 14,8 12,5 12,5 16,1 21,7 15,3 48 75 96 1.014 1.025 1.032 NW 2,4 49,9 125,4
12/2019 8,6 12,1 16,6 14,6 13,0 17,8 23,9 15,3 44 71 92 1.004 1.018 1.032 NW 3,6 66,0 172,6
11/2019 7,3 13,2 20,9 16,2 14,3 19,5 27,7 20,4 44 59 81 999 1.011 1.018 W 5,1 64,4 11,4
10/2019 11,7 17,6 21,4 20,8 16,6 24,7 30,5 18,8 43 70 87 1.008 1.016 1.021 SW 2,4 48,3 79,4
09/2019 13,8 20,4 23,4 23,5 22,8 27,1 32,2 18,4 58 78 94 1.009 1.017 1.023 SW 2,5 59,5 184,2
08/2019 19,8 22,8 26,0 26,2 26,6 30,5 36,4 16,6 55 74 84 1.010 1.015 1.019 WNW 3,0 40,2 47,4
07/2019 21,1 23,0 26,1 26,5 28,5 30,9 36,9 15,8 45 70 82 1.005 1.013 1.020 ESE 3,5 41,8 1,6
Tots els anys disponibles
2019 5,1 15,5 26,1 18,7 10,3 22,7 36,9 31,8 37 68 94 996 1.017 1.033 NW 3,3 66,0 930,2
2018 3,8 15,5 27,3 18,7 7,8 22,5 36,8 33,0 42 72 94 999 1.017 1.030 W 3,6 61,2 701,8
2017 0,8 15,4 26,4 18,6 8,4 22,5 34,0 33,2 3,6 67,6 588,4
2016 5,6 15,2 26,8 18,3 12,1 21,9 37,7 32,1 4,2 70,8 353,4
2015 3,4 15,8 21,7 18,9 22,1 22,7 37,9 34,5 4,3 66,0 453,6
2014 4,8 18,1 26,5 21,1 11,6 24,8 34,6 29,8 4,9 61,2 222,6
2013
Temperatura (°C)
Humitat relativa (%)
Velocitat del vent i ràfega màxima (km/h)
Direcció del vent (°)
Pressió (hPa)
Precipitació (mm)
Nota sobre les dades: s'avisa a l'usuari de la provisionalitat i no oficialitat d'aquestes dades
Logo AVAMET blanc
Web allotjada a Sollutia
Llicència de Creative CommonsLa web d'AVAMET i els seus continguts estan subjectes a una llicència de
Reconeixement - No Comercial - Compartir igual
Últimes estacions: Torremocha del Jiloca (Limítrofe/Soci), Orihuela - Arneva (MeteOrihuela), Enguera - Antolí (Soci), Vilamarxant - La Pedrera (Soci), Càlig (Ajuntament Soci), Quesa - Hotel La Rocha (Soci), Agres - Les Eres (Soci) - - -